sensor_id;sensor_type;location;lat;lon;timestamp;pressure;altitude;pressure_sealevel;temperature;humidity
28606;BME280;46498;49.968;7.754;2023-03-22T00:03:58;96804.00;;;6.09;100.00
28606;BME280;46498;49.968;7.754;2023-03-22T00:09:00;96807.00;;;6.02;100.00
28606;BME280;46498;49.968;7.754;2023-03-22T00:14:01;96802.00;;;5.92;100.00
28606;BME280;46498;49.968;7.754;2023-03-22T00:19:02;96806.00;;;5.91;100.00
28606;BME280;46498;49.968;7.754;2023-03-22T00:24:03;96789.00;;;5.73;100.00
28606;BME280;46498;49.968;7.754;2023-03-22T00:29:04;96791.00;;;5.87;100.00
28606;BME280;46498;49.968;7.754;2023-03-22T00:34:05;96785.00;;;5.77;100.00
28606;BME280;46498;49.968;7.754;2023-03-22T00:39:06;96780.00;;;5.79;100.00
28606;BME280;46498;49.968;7.754;2023-03-22T00:44:07;96767.00;;;5.80;100.00
28606;BME280;46498;49.968;7.754;2023-03-22T00:49:08;96774.00;;;5.77;100.00
28606;BME280;46498;49.968;7.754;2023-03-22T00:54:09;96767.00;;;5.73;100.00
28606;BME280;46498;49.968;7.754;2023-03-22T00:59:11;96762.00;;;5.81;100.00
28606;BME280;46498;49.968;7.754;2023-03-22T01:04:12;96754.00;;;5.71;100.00
28606;BME280;46498;49.968;7.754;2023-03-22T01:09:17;96758.00;;;5.81;100.00
28606;BME280;46498;49.968;7.754;2023-03-22T01:14:24;96749.00;;;5.82;100.00
28606;BME280;46498;49.968;7.754;2023-03-22T01:19:26;96744.00;;;5.65;100.00
28606;BME280;46498;49.968;7.754;2023-03-22T01:24:27;96734.00;;;5.55;100.00
28606;BME280;46498;49.968;7.754;2023-03-22T01:29:28;96740.00;;;5.45;100.00
28606;BME280;46498;49.968;7.754;2023-03-22T01:34:30;96734.00;;;5.44;100.00
28606;BME280;46498;49.968;7.754;2023-03-22T01:39:31;96734.00;;;5.41;100.00
28606;BME280;46498;49.968;7.754;2023-03-22T01:44:35;96728.00;;;5.48;100.00
28606;BME280;46498;49.968;7.754;2023-03-22T01:49:37;96723.00;;;5.48;100.00
28606;BME280;46498;49.968;7.754;2023-03-22T01:54:43;96716.00;;;5.42;100.00
28606;BME280;46498;49.968;7.754;2023-03-22T01:59:59;96717.00;;;5.39;100.00
28606;BME280;46498;49.968;7.754;2023-03-22T02:05:21;96708.00;;;5.42;100.00
28606;BME280;46498;49.968;7.754;2023-03-22T02:10:25;96704.00;;;5.34;100.00
28606;BME280;46498;49.968;7.754;2023-03-22T02:16:10;96696.00;;;5.53;100.00
28606;BME280;46498;49.968;7.754;2023-03-22T02:23:34;96699.00;;;5.90;100.00
28606;BME280;46498;49.968;7.754;2023-03-22T02:29:46;96704.00;;;6.26;100.00
28606;BME280;46498;49.968;7.754;2023-03-22T02:35:45;96689.00;;;6.35;100.00
28606;BME280;46498;49.968;7.754;2023-03-22T02:46:45;96689.00;;;6.48;100.00
28606;BME280;46498;49.968;7.754;2023-03-22T02:52:03;96678.00;;;6.67;100.00
28606;BME280;46498;49.968;7.754;2023-03-22T02:57:32;96688.00;;;6.56;100.00
28606;BME280;46498;49.968;7.754;2023-03-22T03:02:39;96687.00;;;6.36;100.00
28606;BME280;46498;49.968;7.754;2023-03-22T03:07:49;96688.00;;;6.47;100.00
28606;BME280;46498;49.968;7.754;2023-03-22T03:12:52;96670.00;;;6.46;100.00
28606;BME280;46498;49.968;7.754;2023-03-22T03:18:07;96675.00;;;6.39;100.00
28606;BME280;46498;49.968;7.754;2023-03-22T03:24:06;96666.00;;;6.42;100.00
28606;BME280;46498;49.968;7.754;2023-03-22T03:30:51;96659.00;;;6.56;100.00
28606;BME280;46498;49.968;7.754;2023-03-22T03:35:59;96644.00;;;6.43;100.00
28606;BME280;46498;49.968;7.754;2023-03-22T03:41:05;96645.00;;;6.48;100.00
28606;BME280;46498;49.968;7.754;2023-03-22T03:46:08;96638.00;;;6.41;100.00
28606;BME280;46498;49.968;7.754;2023-03-22T03:51:10;96636.00;;;6.31;100.00
28606;BME280;46498;49.968;7.754;2023-03-22T03:56:11;96649.00;;;6.32;100.00
28606;BME280;46498;49.968;7.754;2023-03-22T04:01:16;96644.00;;;6.33;100.00
28606;BME280;46498;49.968;7.754;2023-03-22T04:06:25;96643.00;;;6.39;100.00
28606;BME280;46498;49.968;7.754;2023-03-22T04:11:29;96637.00;;;6.42;100.00
28606;BME280;46498;49.968;7.754;2023-03-22T04:16:32;96628.00;;;6.35;100.00
28606;BME280;46498;49.968;7.754;2023-03-22T04:21:34;96635.00;;;6.32;100.00
28606;BME280;46498;49.968;7.754;2023-03-22T04:26:35;96631.00;;;6.30;100.00
28606;BME280;46498;49.968;7.754;2023-03-22T04:31:55;96626.00;;;6.26;100.00
28606;BME280;46498;49.968;7.754;2023-03-22T04:37:08;96629.00;;;6.37;100.00
28606;BME280;46498;49.968;7.754;2023-03-22T04:43:18;96633.00;;;6.41;100.00
28606;BME280;46498;49.968;7.754;2023-03-22T04:48:24;96631.00;;;6.37;100.00
28606;BME280;46498;49.968;7.754;2023-03-22T04:53:28;96635.00;;;6.39;100.00
28606;BME280;46498;49.968;7.754;2023-03-22T04:58:36;96631.00;;;6.43;100.00
28606;BME280;46498;49.968;7.754;2023-03-22T05:03:38;96630.00;;;6.52;100.00
28606;BME280;46498;49.968;7.754;2023-03-22T05:08:40;96622.00;;;6.47;100.00
28606;BME280;46498;49.968;7.754;2023-03-22T05:13:42;96613.00;;;6.46;100.00
28606;BME280;46498;49.968;7.754;2023-03-22T05:18:43;96621.00;;;6.42;100.00
28606;BME280;46498;49.968;7.754;2023-03-22T05:23:45;96616.00;;;6.41;100.00
28606;BME280;46498;49.968;7.754;2023-03-22T05:28:47;96617.00;;;6.40;100.00
28606;BME280;46498;49.968;7.754;2023-03-22T05:33:54;96615.00;;;6.42;100.00
28606;BME280;46498;49.968;7.754;2023-03-22T05:38:57;96618.00;;;6.23;100.00
28606;BME280;46498;49.968;7.754;2023-03-22T05:43:59;96596.00;;;6.21;100.00
28606;BME280;46498;49.968;7.754;2023-03-22T05:49:00;96604.00;;;6.07;100.00
28606;BME280;46498;49.968;7.754;2023-03-22T05:54:01;96612.00;;;6.07;100.00
28606;BME280;46498;49.968;7.754;2023-03-22T05:59:09;96606.00;;;6.10;100.00
28606;BME280;46498;49.968;7.754;2023-03-22T06:04:10;96610.00;;;6.21;100.00
28606;BME280;46498;49.968;7.754;2023-03-22T06:09:22;96623.00;;;6.31;100.00
28606;BME280;46498;49.968;7.754;2023-03-22T06:14:25;96620.00;;;6.38;100.00
28606;BME280;46498;49.968;7.754;2023-03-22T06:19:53;96625.00;;;6.49;100.00
28606;BME280;46498;49.968;7.754;2023-03-22T06:24:55;96621.00;;;6.55;100.00
28606;BME280;46498;49.968;7.754;2023-03-22T06:30:06;96624.00;;;6.70;100.00
28606;BME280;46498;49.968;7.754;2023-03-22T06:35:14;96630.00;;;6.87;100.00
28606;BME280;46498;49.968;7.754;2023-03-22T06:40:16;96644.00;;;6.90;100.00
28606;BME280;46498;49.968;7.754;2023-03-22T06:45:20;96643.00;;;6.88;100.00
28606;BME280;46498;49.968;7.754;2023-03-22T06:50:22;96639.00;;;7.17;100.00
28606;BME280;46498;49.968;7.754;2023-03-22T06:56:54;96632.00;;;7.65;100.00
28606;BME280;46498;49.968;7.754;2023-03-22T07:01:55;96645.00;;;7.92;100.00
28606;BME280;46498;49.968;7.754;2023-03-22T07:06:56;96644.00;;;8.14;100.00
28606;BME280;46498;49.968;7.754;2023-03-22T07:11:59;96648.00;;;8.27;100.00
28606;BME280;46498;49.968;7.754;2023-03-22T07:17:01;96639.00;;;8.46;100.00
28606;BME280;46498;49.968;7.754;2023-03-22T07:22:02;96642.00;;;8.31;100.00
28606;BME280;46498;49.968;7.754;2023-03-22T07:27:05;96637.00;;;8.36;100.00
28606;BME280;46498;49.968;7.754;2023-03-22T07:32:07;96641.00;;;8.28;100.00
28606;BME280;46498;49.968;7.754;2023-03-22T07:37:25;96647.00;;;8.30;100.00
28606;BME280;46498;49.968;7.754;2023-03-22T07:42:27;96635.00;;;8.47;100.00
28606;BME280;46498;49.968;7.754;2023-03-22T07:47:43;96640.00;;;8.70;100.00
28606;BME280;46498;49.968;7.754;2023-03-22T07:53:42;96641.00;;;8.98;100.00
28606;BME280;46498;49.968;7.754;2023-03-22T07:58:43;96637.00;;;9.01;100.00
28606;BME280;46498;49.968;7.754;2023-03-22T08:03:44;96640.00;;;8.89;100.00
28606;BME280;46498;49.968;7.754;2023-03-22T08:08:56;96637.00;;;8.78;100.00
28606;BME280;46498;49.968;7.754;2023-03-22T08:13:57;96628.00;;;8.69;100.00
28606;BME280;46498;49.968;7.754;2023-03-22T08:18:58;96637.00;;;8.80;100.00
28606;BME280;46498;49.968;7.754;2023-03-22T08:24:01;96627.00;;;8.90;100.00
28606;BME280;46498;49.968;7.754;2023-03-22T08:29:22;96631.00;;;9.01;100.00
28606;BME280;46498;49.968;7.754;2023-03-22T08:34:23;96626.00;;;9.18;100.00
28606;BME280;46498;49.968;7.754;2023-03-22T08:39:25;96620.00;;;9.39;100.00
28606;BME280;46498;49.968;7.754;2023-03-22T08:44:40;96624.00;;;9.59;100.00
28606;BME280;46498;49.968;7.754;2023-03-22T08:49:41;96612.00;;;9.62;98.10
28606;BME280;46498;49.968;7.754;2023-03-22T08:54:49;96617.00;;;9.70;99.43
28606;BME280;46498;49.968;7.754;2023-03-22T09:01:44;96610.00;;;9.85;95.74
28606;BME280;46498;49.968;7.754;2023-03-22T09:06:46;96609.00;;;9.69;97.65
28606;BME280;46498;49.968;7.754;2023-03-22T09:11:47;96605.00;;;9.98;97.56
28606;BME280;46498;49.968;7.754;2023-03-22T09:16:48;96599.00;;;10.47;96.07
28606;BME280;46498;49.968;7.754;2023-03-22T09:21:49;96595.00;;;10.92;92.83
28606;BME280;46498;49.968;7.754;2023-03-22T09:27:00;96587.00;;;10.88;87.57
28606;BME280;46498;49.968;7.754;2023-03-22T09:32:02;96589.00;;;11.27;87.00
28606;BME280;46498;49.968;7.754;2023-03-22T09:37:05;96586.00;;;11.27;87.89
28606;BME280;46498;49.968;7.754;2023-03-22T09:42:32;96596.00;;;11.44;84.83
28606;BME280;46498;49.968;7.754;2023-03-22T09:47:39;96589.00;;;11.80;84.68
28606;BME280;46498;49.968;7.754;2023-03-22T09:52:47;96578.00;;;12.49;81.63
28606;BME280;46498;49.968;7.754;2023-03-22T09:58:51;96581.00;;;11.99;81.21
28606;BME280;46498;49.968;7.754;2023-03-22T10:04:18;96578.00;;;11.43;80.41
28606;BME280;46498;49.968;7.754;2023-03-22T10:09:28;96584.00;;;11.29;80.21
28606;BME280;46498;49.968;7.754;2023-03-22T10:14:38;96581.00;;;11.40;83.11
28606;BME280;46498;49.968;7.754;2023-03-22T10:19:51;96594.00;;;11.14;82.91
28606;BME280;46498;49.968;7.754;2023-03-22T10:24:55;96590.00;;;10.99;82.72
28606;BME280;46498;49.968;7.754;2023-03-22T10:30:06;96592.00;;;11.25;85.34
28606;BME280;46498;49.968;7.754;2023-03-22T10:35:15;96602.00;;;11.71;81.51
28606;BME280;46498;49.968;7.754;2023-03-22T10:40:24;96593.00;;;12.14;78.58
28606;BME280;46498;49.968;7.754;2023-03-22T10:45:27;96595.00;;;12.33;73.45
28606;BME280;46498;49.968;7.754;2023-03-22T10:50:31;96592.00;;;12.74;69.85
28606;BME280;46498;49.968;7.754;2023-03-22T10:55:41;96586.00;;;12.52;70.12
28606;BME280;46498;49.968;7.754;2023-03-22T11:00:56;96580.00;;;12.59;68.70
28606;BME280;46498;49.968;7.754;2023-03-22T11:06:11;96576.00;;;12.92;67.88
28606;BME280;46498;49.968;7.754;2023-03-22T11:11:25;96569.00;;;13.35;64.40
28606;BME280;46498;49.968;7.754;2023-03-22T11:16:27;96578.00;;;13.09;64.09
28606;BME280;46498;49.968;7.754;2023-03-22T11:21:31;96572.00;;;13.00;66.54
28606;BME280;46498;49.968;7.754;2023-03-22T11:26:35;96576.00;;;13.22;65.79
28606;BME280;46498;49.968;7.754;2023-03-22T11:31:56;96572.00;;;13.40;58.59
28606;BME280;46498;49.968;7.754;2023-03-22T11:37:06;96564.00;;;13.23;59.50
28606;BME280;46498;49.968;7.754;2023-03-22T11:42:17;96568.00;;;13.63;58.20
28606;BME280;46498;49.968;7.754;2023-03-22T11:47:19;96576.00;;;13.77;58.80
28606;BME280;46498;49.968;7.754;2023-03-22T11:52:24;96574.00;;;13.70;56.76
28606;BME280;46498;49.968;7.754;2023-03-22T11:57:29;96552.00;;;13.93;55.98
28606;BME280;46498;49.968;7.754;2023-03-22T12:02:37;96557.00;;;13.86;53.59
28606;BME280;46498;49.968;7.754;2023-03-22T12:07:42;96554.00;;;14.00;53.75
28606;BME280;46498;49.968;7.754;2023-03-22T12:12:57;96564.00;;;13.87;52.33
28606;BME280;46498;49.968;7.754;2023-03-22T12:18:06;96560.00;;;13.93;54.19
28606;BME280;46498;49.968;7.754;2023-03-22T12:23:18;96551.00;;;13.89;54.61
28606;BME280;46498;49.968;7.754;2023-03-22T12:28:24;96543.00;;;14.05;56.90
28606;BME280;46498;49.968;7.754;2023-03-22T12:33:30;96555.00;;;13.72;56.55
28606;BME280;46498;49.968;7.754;2023-03-22T12:38:45;96546.00;;;13.66;55.49
28606;BME280;46498;49.968;7.754;2023-03-22T12:43:54;96535.00;;;13.57;57.36
28606;BME280;46498;49.968;7.754;2023-03-22T12:49:01;96530.00;;;13.63;57.89
28606;BME280;46498;49.968;7.754;2023-03-22T12:54:05;96521.00;;;13.52;57.94
28606;BME280;46498;49.968;7.754;2023-03-22T12:59:17;96515.00;;;13.37;57.66
28606;BME280;46498;49.968;7.754;2023-03-22T13:07:52;96514.00;;;13.70;58.04
28606;BME280;46498;49.968;7.754;2023-03-22T13:14:54;96494.00;;;13.70;54.36
28606;BME280;46498;49.968;7.754;2023-03-22T13:20:22;96504.00;;;13.55;55.14
28606;BME280;46498;49.968;7.754;2023-03-22T13:25:28;96503.00;;;13.68;55.28
28606;BME280;46498;49.968;7.754;2023-03-22T13:30:47;96493.00;;;13.53;53.86
28606;BME280;46498;49.968;7.754;2023-03-22T13:35:57;96496.00;;;13.43;54.64
28606;BME280;46498;49.968;7.754;2023-03-22T13:41:25;96497.00;;;13.40;54.11
28606;BME280;46498;49.968;7.754;2023-03-22T13:46:50;96490.00;;;13.34;54.75
28606;BME280;46498;49.968;7.754;2023-03-22T13:51:52;96490.00;;;13.37;55.24
28606;BME280;46498;49.968;7.754;2023-03-22T13:56:59;96478.00;;;13.58;53.76
28606;BME280;46498;49.968;7.754;2023-03-22T14:02:34;96469.00;;;13.47;54.86
28606;BME280;46498;49.968;7.754;2023-03-22T14:07:49;96462.00;;;13.48;55.18
28606;BME280;46498;49.968;7.754;2023-03-22T14:19:33;96451.00;;;13.44;53.15
28606;BME280;46498;49.968;7.754;2023-03-22T14:24:35;96449.00;;;13.42;52.28
28606;BME280;46498;49.968;7.754;2023-03-22T14:29:42;96453.00;;;13.43;52.91
28606;BME280;46498;49.968;7.754;2023-03-22T14:34:46;96447.00;;;13.23;51.58
28606;BME280;46498;49.968;7.754;2023-03-22T14:39:48;96452.00;;;13.14;52.22
28606;BME280;46498;49.968;7.754;2023-03-22T14:44:56;96443.00;;;13.03;51.85
28606;BME280;46498;49.968;7.754;2023-03-22T14:49:58;96444.00;;;12.98;52.38
28606;BME280;46498;49.968;7.754;2023-03-22T14:55:02;96448.00;;;12.83;53.09
28606;BME280;46498;49.968;7.754;2023-03-22T15:00:11;96446.00;;;12.80;54.61
28606;BME280;46498;49.968;7.754;2023-03-22T15:05:21;96445.00;;;12.78;55.40
28606;BME280;46498;49.968;7.754;2023-03-22T15:10:25;96450.00;;;12.76;56.64
28606;BME280;46498;49.968;7.754;2023-03-22T15:15:32;96461.00;;;12.74;57.87
28606;BME280;46498;49.968;7.754;2023-03-22T15:20:35;96452.00;;;12.73;57.90
28606;BME280;46498;49.968;7.754;2023-03-22T15:25:36;96446.00;;;12.70;59.04
28606;BME280;46498;49.968;7.754;2023-03-22T15:30:36;96443.00;;;12.66;59.49
28606;BME280;46498;49.968;7.754;2023-03-22T15:35:43;96440.00;;;12.64;60.06
28606;BME280;46498;49.968;7.754;2023-03-22T15:40:44;96433.00;;;12.63;61.19
28606;BME280;46498;49.968;7.754;2023-03-22T15:51:37;96445.00;;;12.64;60.24
28606;BME280;46498;49.968;7.754;2023-03-22T15:56:46;96447.00;;;12.68;58.05
28606;BME280;46498;49.968;7.754;2023-03-22T16:01:47;96439.00;;;12.58;58.00
28606;BME280;46498;49.968;7.754;2023-03-22T16:06:49;96455.00;;;12.63;58.97
28606;BME280;46498;49.968;7.754;2023-03-22T16:11:50;96451.00;;;12.53;58.73
28606;BME280;46498;49.968;7.754;2023-03-22T16:16:53;96448.00;;;12.66;57.58
28606;BME280;46498;49.968;7.754;2023-03-22T16:21:54;96454.00;;;12.66;57.37
28606;BME280;46498;49.968;7.754;2023-03-22T16:26:55;96450.00;;;12.67;58.38
28606;BME280;46498;49.968;7.754;2023-03-22T16:31:55;96442.00;;;12.67;57.70
28606;BME280;46498;49.968;7.754;2023-03-22T16:37:11;96441.00;;;12.61;58.56
28606;BME280;46498;49.968;7.754;2023-03-22T16:42:21;96437.00;;;12.59;58.73
28606;BME280;46498;49.968;7.754;2023-03-22T16:47:23;96447.00;;;12.58;58.62
28606;BME280;46498;49.968;7.754;2023-03-22T16:52:24;96454.00;;;12.66;57.64
28606;BME280;46498;49.968;7.754;2023-03-22T16:57:27;96450.00;;;12.68;58.10
28606;BME280;46498;49.968;7.754;2023-03-22T17:02:33;96448.00;;;12.62;58.66
28606;BME280;46498;49.968;7.754;2023-03-22T17:07:35;96456.00;;;12.51;59.47
28606;BME280;46498;49.968;7.754;2023-03-22T17:12:36;96462.00;;;12.53;59.90
28606;BME280;46498;49.968;7.754;2023-03-22T17:17:37;96459.00;;;12.48;59.66
28606;BME280;46498;49.968;7.754;2023-03-22T17:22:39;96457.00;;;12.39;59.65
28606;BME280;46498;49.968;7.754;2023-03-22T17:27:41;96457.00;;;12.39;59.05
28606;BME280;46498;49.968;7.754;2023-03-22T17:32:42;96454.00;;;12.53;57.65
28606;BME280;46498;49.968;7.754;2023-03-22T17:37:43;96460.00;;;12.34;59.02
28606;BME280;46498;49.968;7.754;2023-03-22T17:42:45;96472.00;;;12.35;59.46
28606;BME280;46498;49.968;7.754;2023-03-22T17:47:46;96472.00;;;12.28;58.63
28606;BME280;46498;49.968;7.754;2023-03-22T17:52:47;96472.00;;;12.26;58.58
28606;BME280;46498;49.968;7.754;2023-03-22T17:57:47;96467.00;;;12.32;58.31
28606;BME280;46498;49.968;7.754;2023-03-22T18:02:49;96466.00;;;12.26;58.36
28606;BME280;46498;49.968;7.754;2023-03-22T18:07:51;96474.00;;;12.20;58.27
28606;BME280;46498;49.968;7.754;2023-03-22T18:12:52;96476.00;;;12.27;57.65
28606;BME280;46498;49.968;7.754;2023-03-22T18:17:53;96468.00;;;12.21;58.58
28606;BME280;46498;49.968;7.754;2023-03-22T18:22:54;96471.00;;;12.16;58.28
28606;BME280;46498;49.968;7.754;2023-03-22T18:27:55;96473.00;;;12.16;58.57
28606;BME280;46498;49.968;7.754;2023-03-22T18:32:56;96462.00;;;12.07;59.01
28606;BME280;46498;49.968;7.754;2023-03-22T18:37:57;96464.00;;;12.03;58.65
28606;BME280;46498;49.968;7.754;2023-03-22T18:42:57;96466.00;;;12.05;58.65
28606;BME280;46498;49.968;7.754;2023-03-22T18:47:58;96457.00;;;11.99;58.98
28606;BME280;46498;49.968;7.754;2023-03-22T18:52:59;96452.00;;;11.97;59.21
28606;BME280;46498;49.968;7.754;2023-03-22T18:57:59;96451.00;;;11.88;59.83
28606;BME280;46498;49.968;7.754;2023-03-22T19:03:01;96458.00;;;11.98;58.66
28606;BME280;46498;49.968;7.754;2023-03-22T19:08:01;96455.00;;;11.92;60.15
28606;BME280;46498;49.968;7.754;2023-03-22T19:13:02;96442.00;;;11.87;60.14
28606;BME280;46498;49.968;7.754;2023-03-22T19:18:03;96427.00;;;11.77;60.64
28606;BME280;46498;49.968;7.754;2023-03-22T19:23:03;96427.00;;;11.72;61.14
28606;BME280;46498;49.968;7.754;2023-03-22T19:28:04;96426.00;;;11.70;61.69
28606;BME280;46498;49.968;7.754;2023-03-22T19:33:05;96424.00;;;11.65;62.03
28606;BME280;46498;49.968;7.754;2023-03-22T19:38:05;96429.00;;;11.75;62.06
28606;BME280;46498;49.968;7.754;2023-03-22T19:43:07;96418.00;;;11.66;62.95
28606;BME280;46498;49.968;7.754;2023-03-22T19:48:08;96417.00;;;11.71;63.07
28606;BME280;46498;49.968;7.754;2023-03-22T19:53:09;96413.00;;;11.59;64.72
28606;BME280;46498;49.968;7.754;2023-03-22T19:58:12;96424.00;;;11.51;64.50
28606;BME280;46498;49.968;7.754;2023-03-22T20:03:13;96404.00;;;11.50;65.91
28606;BME280;46498;49.968;7.754;2023-03-22T20:08:14;96413.00;;;11.56;65.83
28606;BME280;46498;49.968;7.754;2023-03-22T20:13:15;96396.00;;;11.52;66.23
28606;BME280;46498;49.968;7.754;2023-03-22T20:18:16;96399.00;;;11.49;67.37
28606;BME280;46498;49.968;7.754;2023-03-22T20:23:18;96385.00;;;11.48;67.66
28606;BME280;46498;49.968;7.754;2023-03-22T20:28:19;96381.00;;;11.44;68.59
28606;BME280;46498;49.968;7.754;2023-03-22T20:33:20;96382.00;;;11.43;68.79
28606;BME280;46498;49.968;7.754;2023-03-22T20:38:24;96385.00;;;11.47;69.17
28606;BME280;46498;49.968;7.754;2023-03-22T20:43:26;96380.00;;;11.44;69.77
28606;BME280;46498;49.968;7.754;2023-03-22T20:48:27;96372.00;;;11.44;70.33
28606;BME280;46498;49.968;7.754;2023-03-22T20:53:27;96368.00;;;11.51;69.72
28606;BME280;46498;49.968;7.754;2023-03-22T20:58:28;96366.00;;;11.50;70.02
28606;BME280;46498;49.968;7.754;2023-03-22T21:03:30;96361.00;;;11.59;69.29
28606;BME280;46498;49.968;7.754;2023-03-22T21:08:32;96357.00;;;11.59;69.28
28606;BME280;46498;49.968;7.754;2023-03-22T21:13:37;96354.00;;;11.64;68.51
28606;BME280;46498;49.968;7.754;2023-03-22T21:18:38;96350.00;;;11.63;68.66
28606;BME280;46498;49.968;7.754;2023-03-22T21:23:39;96352.00;;;11.60;68.88
28606;BME280;46498;49.968;7.754;2023-03-22T21:28:40;96359.00;;;11.67;67.17
28606;BME280;46498;49.968;7.754;2023-03-22T21:33:41;96363.00;;;11.70;67.06
28606;BME280;46498;49.968;7.754;2023-03-22T21:38:42;96363.00;;;11.61;67.14
28606;BME280;46498;49.968;7.754;2023-03-22T21:43:53;96358.00;;;11.61;66.61
28606;BME280;46498;49.968;7.754;2023-03-22T21:48:54;96355.00;;;11.59;66.29
28606;BME280;46498;49.968;7.754;2023-03-22T21:53:58;96357.00;;;11.64;66.02
28606;BME280;46498;49.968;7.754;2023-03-22T21:59:01;96357.00;;;11.62;65.89
28606;BME280;46498;49.968;7.754;2023-03-22T22:04:04;96345.00;;;11.63;65.29
28606;BME280;46498;49.968;7.754;2023-03-22T22:09:04;96345.00;;;11.70;63.73
28606;BME280;46498;49.968;7.754;2023-03-22T22:14:05;96342.00;;;11.72;63.38
28606;BME280;46498;49.968;7.754;2023-03-22T22:19:06;96336.00;;;11.82;60.91
28606;BME280;46498;49.968;7.754;2023-03-22T22:24:06;96335.00;;;11.99;59.86
28606;BME280;46498;49.968;7.754;2023-03-22T22:29:07;96333.00;;;11.87;60.14
28606;BME280;46498;49.968;7.754;2023-03-22T22:34:08;96338.00;;;11.98;59.49
28606;BME280;46498;49.968;7.754;2023-03-22T22:39:09;96330.00;;;11.98;59.22
28606;BME280;46498;49.968;7.754;2023-03-22T22:44:12;96325.00;;;11.91;59.64
28606;BME280;46498;49.968;7.754;2023-03-22T22:49:12;96330.00;;;11.83;60.35
28606;BME280;46498;49.968;7.754;2023-03-22T22:54:13;96311.00;;;11.77;60.81
28606;BME280;46498;49.968;7.754;2023-03-22T22:59:13;96319.00;;;11.80;60.91
28606;BME280;46498;49.968;7.754;2023-03-22T23:04:14;96309.00;;;11.81;60.99
28606;BME280;46498;49.968;7.754;2023-03-22T23:09:20;96298.00;;;11.73;61.13
28606;BME280;46498;49.968;7.754;2023-03-22T23:14:23;96300.00;;;11.77;60.89
28606;BME280;46498;49.968;7.754;2023-03-22T23:19:31;96293.00;;;11.72;61.20
28606;BME280;46498;49.968;7.754;2023-03-22T23:24:32;96291.00;;;11.74;61.21
28606;BME280;46498;49.968;7.754;2023-03-22T23:29:33;96278.00;;;11.62;61.93
28606;BME280;46498;49.968;7.754;2023-03-22T23:34:36;96281.00;;;11.71;60.88
28606;BME280;46498;49.968;7.754;2023-03-22T23:39:36;96282.00;;;11.77;60.86
28606;BME280;46498;49.968;7.754;2023-03-22T23:44:38;96282.00;;;11.72;61.50
28606;BME280;46498;49.968;7.754;2023-03-22T23:49:38;96281.00;;;11.70;61.79
28606;BME280;46498;49.968;7.754;2023-03-22T23:54:40;96285.00;;;11.67;62.59
28606;BME280;46498;49.968;7.754;2023-03-22T23:59:41;96287.00;;;11.73;62.11
